sensor_id;sensor_type;location;lat;lon;timestamp;P1;durP1;ratioP1;P2;durP2;ratioP2
37407;SDS011;24866;50.248;8.252;2022-08-06T00:00:12;2.58;;;1.13;;
37407;SDS011;24866;50.248;8.252;2022-08-06T00:02:42;2.85;;;1.58;;
37407;SDS011;24866;50.248;8.252;2022-08-06T00:05:12;5.22;;;1.40;;
37407;SDS011;24866;50.248;8.252;2022-08-06T00:07:42;4.35;;;1.40;;
37407;SDS011;24866;50.248;8.252;2022-08-06T00:10:12;3.95;;;1.58;;
37407;SDS011;24866;50.248;8.252;2022-08-06T00:12:44;2.47;;;1.30;;
37407;SDS011;24866;50.248;8.252;2022-08-06T00:15:15;2.78;;;1.33;;
37407;SDS011;24866;50.248;8.252;2022-08-06T00:17:47;2.50;;;1.30;;
37407;SDS011;24866;50.248;8.252;2022-08-06T00:20:17;2.67;;;1.20;;
37407;SDS011;24866;50.248;8.252;2022-08-06T00:22:46;2.67;;;1.35;;
37407;SDS011;24866;50.248;8.252;2022-08-06T00:25:16;7.95;;;1.50;;
37407;SDS011;24866;50.248;8.252;2022-08-06T00:27:48;4.47;;;1.17;;
37407;SDS011;24866;50.248;8.252;2022-08-06T00:30:18;2.20;;;1.20;;
37407;SDS011;24866;50.248;8.252;2022-08-06T00:32:48;2.95;;;1.30;;
37407;SDS011;24866;50.248;8.252;2022-08-06T00:35:18;4.18;;;1.48;;
37407;SDS011;24866;50.248;8.252;2022-08-06T00:37:49;3.55;;;1.63;;
37407;SDS011;24866;50.248;8.252;2022-08-06T00:40:19;2.97;;;1.23;;
37407;SDS011;24866;50.248;8.252;2022-08-06T00:42:51;2.65;;;1.50;;
37407;SDS011;24866;50.248;8.252;2022-08-06T00:45:21;4.65;;;1.38;;
37407;SDS011;24866;50.248;8.252;2022-08-06T00:47:51;3.88;;;1.48;;
37407;SDS011;24866;50.248;8.252;2022-08-06T00:50:21;3.05;;;1.20;;
37407;SDS011;24866;50.248;8.252;2022-08-06T00:52:51;3.40;;;1.35;;
37407;SDS011;24866;50.248;8.252;2022-08-06T00:55:21;5.25;;;1.67;;
37407;SDS011;24866;50.248;8.252;2022-08-06T00:57:53;1.67;;;1.10;;
37407;SDS011;24866;50.248;8.252;2022-08-06T01:00:22;2.65;;;1.33;;
37407;SDS011;24866;50.248;8.252;2022-08-06T01:02:52;3.20;;;1.20;;
37407;SDS011;24866;50.248;8.252;2022-08-06T01:05:22;4.60;;;1.40;;
37407;SDS011;24866;50.248;8.252;2022-08-06T01:07:52;3.85;;;1.20;;
37407;SDS011;24866;50.248;8.252;2022-08-06T01:10:23;2.63;;;1.33;;
37407;SDS011;24866;50.248;8.252;2022-08-06T01:12:54;3.80;;;1.35;;
37407;SDS011;24866;50.248;8.252;2022-08-06T01:15:24;2.90;;;1.23;;
37407;SDS011;24866;50.248;8.252;2022-08-06T01:17:57;2.30;;;1.40;;
37407;SDS011;24866;50.248;8.252;2022-08-06T01:20:34;4.45;;;1.40;;
37407;SDS011;24866;50.248;8.252;2022-08-06T01:23:17;2.25;;;1.40;;
37407;SDS011;24866;50.248;8.252;2022-08-06T01:29:00;3.75;;;1.60;;
37407;SDS011;24866;50.248;8.252;2022-08-06T01:31:34;2.78;;;1.23;;
37407;SDS011;24866;50.248;8.252;2022-08-06T01:34:12;2.63;;;1.10;;
37407;SDS011;24866;50.248;8.252;2022-08-06T01:36:47;1.65;;;1.15;;
37407;SDS011;24866;50.248;8.252;2022-08-06T01:39:21;3.38;;;1.10;;
37407;SDS011;24866;50.248;8.252;2022-08-06T01:41:54;2.33;;;1.42;;
37407;SDS011;24866;50.248;8.252;2022-08-06T01:44:29;3.08;;;1.63;;
37407;SDS011;24866;50.248;8.252;2022-08-06T01:47:01;2.17;;;1.20;;
37407;SDS011;24866;50.248;8.252;2022-08-06T01:49:34;3.53;;;1.45;;
37407;SDS011;24866;50.248;8.252;2022-08-06T01:52:06;3.78;;;1.40;;
37407;SDS011;24866;50.248;8.252;2022-08-06T01:54:40;3.92;;;1.42;;
37407;SDS011;24866;50.248;8.252;2022-08-06T01:57:13;2.45;;;1.27;;
37407;SDS011;24866;50.248;8.252;2022-08-06T01:59:48;3.72;;;1.40;;
37407;SDS011;24866;50.248;8.252;2022-08-06T02:02:22;2.15;;;1.17;;
37407;SDS011;24866;50.248;8.252;2022-08-06T02:04:56;4.43;;;1.67;;
37407;SDS011;24866;50.248;8.252;2022-08-06T02:10:00;2.10;;;1.13;;
37407;SDS011;24866;50.248;8.252;2022-08-06T02:12:34;3.80;;;1.40;;
37407;SDS011;24866;50.248;8.252;2022-08-06T02:15:09;3.65;;;1.30;;
37407;SDS011;24866;50.248;8.252;2022-08-06T02:17:47;3.80;;;1.10;;
37407;SDS011;24866;50.248;8.252;2022-08-06T02:20:20;3.72;;;1.60;;
37407;SDS011;24866;50.248;8.252;2022-08-06T02:22:54;5.13;;;1.40;;
37407;SDS011;24866;50.248;8.252;2022-08-06T02:25:26;2.42;;;1.38;;
37407;SDS011;24866;50.248;8.252;2022-08-06T02:27:56;5.10;;;1.88;;
37407;SDS011;24866;50.248;8.252;2022-08-06T02:30:31;1.85;;;1.20;;
37407;SDS011;24866;50.248;8.252;2022-08-06T02:33:05;3.88;;;1.77;;
37407;SDS011;24866;50.248;8.252;2022-08-06T02:35:39;3.53;;;1.42;;
37407;SDS011;24866;50.248;8.252;2022-08-06T02:38:13;3.10;;;1.40;;
37407;SDS011;24866;50.248;8.252;2022-08-06T02:40:53;2.47;;;1.42;;
37407;SDS011;24866;50.248;8.252;2022-08-06T02:43:27;3.28;;;1.45;;
37407;SDS011;24866;50.248;8.252;2022-08-06T02:46:06;3.20;;;1.50;;
37407;SDS011;24866;50.248;8.252;2022-08-06T02:48:42;4.47;;;1.52;;
37407;SDS011;24866;50.248;8.252;2022-08-06T02:51:17;2.97;;;1.23;;
37407;SDS011;24866;50.248;8.252;2022-08-06T02:53:54;3.65;;;1.30;;
37407;SDS011;24866;50.248;8.252;2022-08-06T02:56:27;1.85;;;1.30;;
37407;SDS011;24866;50.248;8.252;2022-08-06T02:58:59;3.22;;;1.20;;
37407;SDS011;24866;50.248;8.252;2022-08-06T03:01:33;3.63;;;1.08;;
37407;SDS011;24866;50.248;8.252;2022-08-06T03:04:05;2.35;;;1.20;;
37407;SDS011;24866;50.248;8.252;2022-08-06T03:06:36;4.28;;;1.40;;
37407;SDS011;24866;50.248;8.252;2022-08-06T03:09:10;3.75;;;1.10;;
37407;SDS011;24866;50.248;8.252;2022-08-06T03:11:41;3.30;;;1.30;;
37407;SDS011;24866;50.248;8.252;2022-08-06T03:16:46;3.60;;;1.10;;
37407;SDS011;24866;50.248;8.252;2022-08-06T03:19:18;3.47;;;1.30;;
37407;SDS011;24866;50.248;8.252;2022-08-06T03:21:50;3.65;;;1.58;;
37407;SDS011;24866;50.248;8.252;2022-08-06T03:24:21;5.07;;;1.30;;
37407;SDS011;24866;50.248;8.252;2022-08-06T03:26:53;2.55;;;1.17;;
37407;SDS011;24866;50.248;8.252;2022-08-06T03:29:26;5.05;;;1.02;;
37407;SDS011;24866;50.248;8.252;2022-08-06T03:31:58;2.30;;;1.50;;
37407;SDS011;24866;50.248;8.252;2022-08-06T03:34:30;2.90;;;1.27;;
37407;SDS011;24866;50.248;8.252;2022-08-06T03:37:04;6.63;;;1.40;;
37407;SDS011;24866;50.248;8.252;2022-08-06T03:39:36;2.70;;;1.52;;
37407;SDS011;24866;50.248;8.252;2022-08-06T03:42:08;1.73;;;1.00;;
37407;SDS011;24866;50.248;8.252;2022-08-06T03:44:38;3.80;;;0.93;;
37407;SDS011;24866;50.248;8.252;2022-08-06T03:47:11;4.07;;;1.20;;
37407;SDS011;24866;50.248;8.252;2022-08-06T03:49:48;1.70;;;1.08;;
37407;SDS011;24866;50.248;8.252;2022-08-06T03:52:23;2.08;;;0.98;;
37407;SDS011;24866;50.248;8.252;2022-08-06T03:54:58;2.13;;;1.42;;
37407;SDS011;24866;50.248;8.252;2022-08-06T03:57:34;1.88;;;1.10;;
37407;SDS011;24866;50.248;8.252;2022-08-06T04:00:08;4.50;;;1.27;;
37407;SDS011;24866;50.248;8.252;2022-08-06T04:02:42;8.37;;;1.20;;
37407;SDS011;24866;50.248;8.252;2022-08-06T04:05:16;3.25;;;1.00;;
37407;SDS011;24866;50.248;8.252;2022-08-06T04:07:47;1.15;;;0.70;;
37407;SDS011;24866;50.248;8.252;2022-08-06T04:10:18;1.75;;;1.20;;
37407;SDS011;24866;50.248;8.252;2022-08-06T04:12:49;2.95;;;1.20;;
37407;SDS011;24866;50.248;8.252;2022-08-06T04:15:20;3.33;;;1.10;;
37407;SDS011;24866;50.248;8.252;2022-08-06T04:17:51;3.08;;;1.20;;
37407;SDS011;24866;50.248;8.252;2022-08-06T04:20:25;3.78;;;1.27;;
37407;SDS011;24866;50.248;8.252;2022-08-06T04:22:57;2.80;;;1.20;;
37407;SDS011;24866;50.248;8.252;2022-08-06T04:25:28;4.82;;;1.33;;
37407;SDS011;24866;50.248;8.252;2022-08-06T04:28:03;2.85;;;1.08;;
37407;SDS011;24866;50.248;8.252;2022-08-06T04:30:34;2.55;;;0.90;;
37407;SDS011;24866;50.248;8.252;2022-08-06T04:33:09;1.77;;;0.80;;
37407;SDS011;24866;50.248;8.252;2022-08-06T04:35:42;3.00;;;1.05;;
37407;SDS011;24866;50.248;8.252;2022-08-06T04:38:12;2.65;;;1.08;;
37407;SDS011;24866;50.248;8.252;2022-08-06T04:40:44;4.65;;;1.15;;
37407;SDS011;24866;50.248;8.252;2022-08-06T04:43:14;2.33;;;1.00;;
37407;SDS011;24866;50.248;8.252;2022-08-06T04:45:44;6.05;;;1.25;;
37407;SDS011;24866;50.248;8.252;2022-08-06T04:48:16;3.28;;;1.30;;
37407;SDS011;24866;50.248;8.252;2022-08-06T04:50:46;2.92;;;0.93;;
37407;SDS011;24866;50.248;8.252;2022-08-06T04:53:17;3.15;;;1.40;;
37407;SDS011;24866;50.248;8.252;2022-08-06T04:55:48;2.47;;;1.35;;
37407;SDS011;24866;50.248;8.252;2022-08-06T04:58:18;2.63;;;1.00;;
37407;SDS011;24866;50.248;8.252;2022-08-06T05:00:48;2.05;;;1.10;;
37407;SDS011;24866;50.248;8.252;2022-08-06T05:03:19;2.80;;;1.40;;
37407;SDS011;24866;50.248;8.252;2022-08-06T05:05:51;3.95;;;1.40;;
37407;SDS011;24866;50.248;8.252;2022-08-06T05:08:24;3.55;;;1.30;;
37407;SDS011;24866;50.248;8.252;2022-08-06T05:11:00;3.65;;;1.25;;
37407;SDS011;24866;50.248;8.252;2022-08-06T05:13:33;4.85;;;1.50;;
37407;SDS011;24866;50.248;8.252;2022-08-06T05:16:06;2.28;;;1.27;;
37407;SDS011;24866;50.248;8.252;2022-08-06T05:18:42;2.78;;;1.48;;
37407;SDS011;24866;50.248;8.252;2022-08-06T05:21:14;2.97;;;1.30;;
37407;SDS011;24866;50.248;8.252;2022-08-06T05:23:56;2.50;;;1.70;;
37407;SDS011;24866;50.248;8.252;2022-08-06T05:26:27;2.15;;;1.52;;
37407;SDS011;24866;50.248;8.252;2022-08-06T05:28:57;3.60;;;1.58;;
37407;SDS011;24866;50.248;8.252;2022-08-06T05:31:28;2.33;;;1.50;;
37407;SDS011;24866;50.248;8.252;2022-08-06T05:34:00;4.10;;;1.50;;
37407;SDS011;24866;50.248;8.252;2022-08-06T05:36:30;3.38;;;1.60;;
37407;SDS011;24866;50.248;8.252;2022-08-06T05:39:00;3.22;;;1.70;;
37407;SDS011;24866;50.248;8.252;2022-08-06T05:41:30;4.15;;;1.48;;
37407;SDS011;24866;50.248;8.252;2022-08-06T05:44:02;5.25;;;1.70;;
37407;SDS011;24866;50.248;8.252;2022-08-06T05:46:34;4.03;;;1.90;;
37407;SDS011;24866;50.248;8.252;2022-08-06T05:49:09;4.15;;;1.80;;
37407;SDS011;24866;50.248;8.252;2022-08-06T05:51:43;3.17;;;1.52;;
37407;SDS011;24866;50.248;8.252;2022-08-06T05:57:10;3.15;;;1.27;;
37407;SDS011;24866;50.248;8.252;2022-08-06T06:02:21;2.90;;;1.55;;
37407;SDS011;24866;50.248;8.252;2022-08-06T06:04:54;4.07;;;1.75;;
37407;SDS011;24866;50.248;8.252;2022-08-06T06:07:24;3.10;;;1.33;;
37407;SDS011;24866;50.248;8.252;2022-08-06T06:09:54;3.92;;;1.55;;
37407;SDS011;24866;50.248;8.252;2022-08-06T06:12:25;4.78;;;1.20;;
37407;SDS011;24866;50.248;8.252;2022-08-06T06:14:56;2.63;;;1.33;;
37407;SDS011;24866;50.248;8.252;2022-08-06T06:17:32;3.97;;;1.08;;
37407;SDS011;24866;50.248;8.252;2022-08-06T06:20:19;5.18;;;1.42;;
37407;SDS011;24866;50.248;8.252;2022-08-06T06:22:59;2.50;;;1.50;;
37407;SDS011;24866;50.248;8.252;2022-08-06T06:25:35;5.82;;;1.33;;
37407;SDS011;24866;50.248;8.252;2022-08-06T06:28:14;3.03;;;1.45;;
37407;SDS011;24866;50.248;8.252;2022-08-06T06:30:53;2.50;;;1.50;;
37407;SDS011;24866;50.248;8.252;2022-08-06T06:33:35;3.25;;;1.20;;
37407;SDS011;24866;50.248;8.252;2022-08-06T06:36:11;9.43;;;1.50;;
37407;SDS011;24866;50.248;8.252;2022-08-06T06:38:57;2.53;;;1.13;;
37407;SDS011;24866;50.248;8.252;2022-08-06T06:41:33;2.95;;;0.95;;
37407;SDS011;24866;50.248;8.252;2022-08-06T06:44:08;3.53;;;1.17;;
37407;SDS011;24866;50.248;8.252;2022-08-06T06:46:53;3.53;;;0.85;;
37407;SDS011;24866;50.248;8.252;2022-08-06T06:49:29;2.13;;;1.10;;
37407;SDS011;24866;50.248;8.252;2022-08-06T06:52:08;4.65;;;1.10;;
37407;SDS011;24866;50.248;8.252;2022-08-06T06:54:41;3.25;;;1.20;;
37407;SDS011;24866;50.248;8.252;2022-08-06T06:57:15;2.75;;;0.90;;
37407;SDS011;24866;50.248;8.252;2022-08-06T06:59:50;2.38;;;1.20;;
37407;SDS011;24866;50.248;8.252;2022-08-06T07:02:22;4.22;;;1.15;;
37407;SDS011;24866;50.248;8.252;2022-08-06T07:04:53;3.25;;;0.93;;
37407;SDS011;24866;50.248;8.252;2022-08-06T07:07:26;4.47;;;1.40;;
37407;SDS011;24866;50.248;8.252;2022-08-06T07:09:58;2.35;;;1.30;;
37407;SDS011;24866;50.248;8.252;2022-08-06T07:12:30;5.38;;;1.33;;
37407;SDS011;24866;50.248;8.252;2022-08-06T07:15:03;6.25;;;1.10;;
37407;SDS011;24866;50.248;8.252;2022-08-06T07:17:36;4.68;;;1.20;;
37407;SDS011;24866;50.248;8.252;2022-08-06T07:20:08;4.85;;;1.30;;
37407;SDS011;24866;50.248;8.252;2022-08-06T07:22:42;3.20;;;1.05;;
37407;SDS011;24866;50.248;8.252;2022-08-06T07:25:13;3.25;;;1.20;;
37407;SDS011;24866;50.248;8.252;2022-08-06T07:27:45;4.15;;;1.30;;
37407;SDS011;24866;50.248;8.252;2022-08-06T07:30:18;5.82;;;1.10;;
37407;SDS011;24866;50.248;8.252;2022-08-06T07:32:49;2.65;;;1.00;;
37407;SDS011;24866;50.248;8.252;2022-08-06T07:35:19;4.65;;;0.80;;
37407;SDS011;24866;50.248;8.252;2022-08-06T07:37:53;3.42;;;1.20;;
37407;SDS011;24866;50.248;8.252;2022-08-06T07:40:25;2.08;;;0.73;;
37407;SDS011;24866;50.248;8.252;2022-08-06T07:42:59;2.40;;;0.60;;
37407;SDS011;24866;50.248;8.252;2022-08-06T07:45:35;4.28;;;0.80;;
37407;SDS011;24866;50.248;8.252;2022-08-06T07:48:07;2.28;;;0.88;;
37407;SDS011;24866;50.248;8.252;2022-08-06T07:50:42;4.20;;;1.00;;
37407;SDS011;24866;50.248;8.252;2022-08-06T07:53:17;2.08;;;1.20;;
37407;SDS011;24866;50.248;8.252;2022-08-06T07:55:48;1.52;;;0.93;;
37407;SDS011;24866;50.248;8.252;2022-08-06T07:58:19;3.10;;;1.08;;
37407;SDS011;24866;50.248;8.252;2022-08-06T08:00:49;3.10;;;1.30;;
37407;SDS011;24866;50.248;8.252;2022-08-06T08:03:19;4.28;;;1.27;;
37407;SDS011;24866;50.248;8.252;2022-08-06T08:06:08;3.63;;;0.98;;
37407;SDS011;24866;50.248;8.252;2022-08-06T08:08:55;4.70;;;1.10;;
37407;SDS011;24866;50.248;8.252;2022-08-06T08:11:26;6.00;;;1.08;;
37407;SDS011;24866;50.248;8.252;2022-08-06T08:13:57;4.05;;;1.00;;
37407;SDS011;24866;50.248;8.252;2022-08-06T08:16:28;6.65;;;1.38;;
37407;SDS011;24866;50.248;8.252;2022-08-06T08:18:57;4.20;;;1.00;;
37407;SDS011;24866;50.248;8.252;2022-08-06T08:21:27;6.55;;;1.25;;
37407;SDS011;24866;50.248;8.252;2022-08-06T08:24:00;4.75;;;0.82;;
37407;SDS011;24866;50.248;8.252;2022-08-06T08:26:30;1.33;;;0.55;;
37407;SDS011;24866;50.248;8.252;2022-08-06T08:29:00;4.25;;;0.85;;
37407;SDS011;24866;50.248;8.252;2022-08-06T08:31:30;3.67;;;0.70;;
37407;SDS011;24866;50.248;8.252;2022-08-06T08:34:00;1.50;;;0.98;;
37407;SDS011;24866;50.248;8.252;2022-08-06T08:36:30;4.97;;;1.52;;
37407;SDS011;24866;50.248;8.252;2022-08-06T08:39:02;8.27;;;3.25;;
37407;SDS011;24866;50.248;8.252;2022-08-06T08:41:33;3.00;;;1.40;;
37407;SDS011;24866;50.248;8.252;2022-08-06T08:44:06;6.03;;;0.90;;
37407;SDS011;24866;50.248;8.252;2022-08-06T08:46:38;6.72;;;1.42;;
37407;SDS011;24866;50.248;8.252;2022-08-06T08:49:13;3.33;;;0.85;;
37407;SDS011;24866;50.248;8.252;2022-08-06T08:51:48;4.95;;;0.75;;
37407;SDS011;24866;50.248;8.252;2022-08-06T08:54:22;3.92;;;0.60;;
37407;SDS011;24866;50.248;8.252;2022-08-06T08:56:54;4.88;;;1.08;;
37407;SDS011;24866;50.248;8.252;2022-08-06T08:59:24;3.88;;;0.82;;
37407;SDS011;24866;50.248;8.252;2022-08-06T09:01:55;2.78;;;0.75;;
37407;SDS011;24866;50.248;8.252;2022-08-06T09:04:25;1.90;;;0.60;;
37407;SDS011;24866;50.248;8.252;2022-08-06T09:06:56;5.28;;;0.68;;
37407;SDS011;24866;50.248;8.252;2022-08-06T09:09:27;1.48;;;0.63;;
37407;SDS011;24866;50.248;8.252;2022-08-06T09:11:59;0.93;;;0.40;;
37407;SDS011;24866;50.248;8.252;2022-08-06T09:14:29;7.72;;;0.80;;
37407;SDS011;24866;50.248;8.252;2022-08-06T09:16:59;5.45;;;0.88;;
37407;SDS011;24866;50.248;8.252;2022-08-06T09:19:30;3.42;;;0.65;;
37407;SDS011;24866;50.248;8.252;2022-08-06T09:22:01;2.00;;;0.73;;
37407;SDS011;24866;50.248;8.252;2022-08-06T09:24:33;3.15;;;0.80;;
37407;SDS011;24866;50.248;8.252;2022-08-06T09:27:04;3.85;;;0.65;;
37407;SDS011;24866;50.248;8.252;2022-08-06T09:29:35;2.72;;;0.88;;
37407;SDS011;24866;50.248;8.252;2022-08-06T09:35:14;4.15;;;0.70;;
37407;SDS011;24866;50.248;8.252;2022-08-06T09:37:48;2.05;;;0.88;;
37407;SDS011;24866;50.248;8.252;2022-08-06T09:40:20;2.10;;;0.50;;
37407;SDS011;24866;50.248;8.252;2022-08-06T09:42:51;3.60;;;0.85;;
37407;SDS011;24866;50.248;8.252;2022-08-06T09:45:22;3.05;;;0.77;;
37407;SDS011;24866;50.248;8.252;2022-08-06T09:48:00;4.55;;;0.85;;
37407;SDS011;24866;50.248;8.252;2022-08-06T09:50:35;5.45;;;0.68;;
37407;SDS011;24866;50.248;8.252;2022-08-06T09:53:07;2.38;;;0.50;;
37407;SDS011;24866;50.248;8.252;2022-08-06T09:55:39;1.98;;;0.60;;
37407;SDS011;24866;50.248;8.252;2022-08-06T09:58:09;4.20;;;0.77;;
37407;SDS011;24866;50.248;8.252;2022-08-06T10:00:39;3.40;;;0.80;;
37407;SDS011;24866;50.248;8.252;2022-08-06T10:03:09;3.00;;;0.68;;
37407;SDS011;24866;50.248;8.252;2022-08-06T10:05:39;5.53;;;0.85;;
37407;SDS011;24866;50.248;8.252;2022-08-06T10:08:13;3.47;;;0.88;;
37407;SDS011;24866;50.248;8.252;2022-08-06T10:10:46;3.13;;;0.55;;
37407;SDS011;24866;50.248;8.252;2022-08-06T10:15:48;4.85;;;0.90;;
37407;SDS011;24866;50.248;8.252;2022-08-06T10:18:35;3.60;;;0.68;;
37407;SDS011;24866;50.248;8.252;2022-08-06T10:21:07;3.15;;;0.75;;
37407;SDS011;24866;50.248;8.252;2022-08-06T10:23:39;2.97;;;0.80;;
37407;SDS011;24866;50.248;8.252;2022-08-06T10:26:11;2.50;;;1.10;;
37407;SDS011;24866;50.248;8.252;2022-08-06T10:28:43;2.20;;;0.47;;
37407;SDS011;24866;50.248;8.252;2022-08-06T10:31:15;5.38;;;0.88;;
37407;SDS011;24866;50.248;8.252;2022-08-06T10:33:47;5.13;;;1.33;;
37407;SDS011;24866;50.248;8.252;2022-08-06T10:36:25;2.53;;;0.63;;
37407;SDS011;24866;50.248;8.252;2022-08-06T10:38:59;1.77;;;0.47;;
37407;SDS011;24866;50.248;8.252;2022-08-06T10:41:32;4.85;;;0.98;;
37407;SDS011;24866;50.248;8.252;2022-08-06T10:44:06;2.88;;;0.85;;
37407;SDS011;24866;50.248;8.252;2022-08-06T10:46:37;1.90;;;0.45;;
37407;SDS011;24866;50.248;8.252;2022-08-06T10:49:08;4.05;;;0.80;;
37407;SDS011;24866;50.248;8.252;2022-08-06T10:51:39;2.67;;;0.50;;
37407;SDS011;24866;50.248;8.252;2022-08-06T10:54:10;1.77;;;0.63;;
37407;SDS011;24866;50.248;8.252;2022-08-06T10:56:42;3.63;;;0.80;;
37407;SDS011;24866;50.248;8.252;2022-08-06T10:59:14;3.40;;;0.57;;
37407;SDS011;24866;50.248;8.252;2022-08-06T11:01:46;2.90;;;0.70;;
37407;SDS011;24866;50.248;8.252;2022-08-06T11:04:31;2.75;;;0.50;;
37407;SDS011;24866;50.248;8.252;2022-08-06T11:07:15;2.85;;;0.70;;
37407;SDS011;24866;50.248;8.252;2022-08-06T11:10:05;3.20;;;0.60;;
37407;SDS011;24866;50.248;8.252;2022-08-06T11:12:50;3.35;;;0.70;;
37407;SDS011;24866;50.248;8.252;2022-08-06T11:15:23;3.78;;;0.70;;
37407;SDS011;24866;50.248;8.252;2022-08-06T11:17:53;2.50;;;0.77;;
37407;SDS011;24866;50.248;8.252;2022-08-06T11:20:38;3.05;;;0.85;;
37407;SDS011;24866;50.248;8.252;2022-08-06T11:23:23;2.08;;;0.47;;
37407;SDS011;24866;50.248;8.252;2022-08-06T11:25:56;2.47;;;0.77;;
37407;SDS011;24866;50.248;8.252;2022-08-06T11:31:39;9.82;;;0.73;;
37407;SDS011;24866;50.248;8.252;2022-08-06T11:34:12;3.53;;;0.60;;
37407;SDS011;24866;50.248;8.252;2022-08-06T11:36:47;0.57;;;0.35;;
37407;SDS011;24866;50.248;8.252;2022-08-06T11:39:23;3.08;;;0.50;;
37407;SDS011;24866;50.248;8.252;2022-08-06T11:41:56;2.63;;;0.45;;
37407;SDS011;24866;50.248;8.252;2022-08-06T11:44:28;1.13;;;0.40;;
37407;SDS011;24866;50.248;8.252;2022-08-06T11:49:48;2.85;;;0.63;;
37407;SDS011;24866;50.248;8.252;2022-08-06T11:52:38;1.00;;;0.40;;
37407;SDS011;24866;50.248;8.252;2022-08-06T11:55:10;1.70;;;0.50;;
37407;SDS011;24866;50.248;8.252;2022-08-06T11:57:41;1.50;;;0.40;;
37407;SDS011;24866;50.248;8.252;2022-08-06T12:00:13;1.73;;;0.50;;
37407;SDS011;24866;50.248;8.252;2022-08-06T12:02:50;1.80;;;0.50;;
37407;SDS011;24866;50.248;8.252;2022-08-06T12:05:33;2.30;;;0.30;;
37407;SDS011;24866;50.248;8.252;2022-08-06T12:08:18;2.35;;;0.60;;
37407;SDS011;24866;50.248;8.252;2022-08-06T12:13:58;2.22;;;0.60;;
37407;SDS011;24866;50.248;8.252;2022-08-06T12:16:32;3.53;;;0.55;;
37407;SDS011;24866;50.248;8.252;2022-08-06T12:19:12;1.85;;;0.50;;
37407;SDS011;24866;50.248;8.252;2022-08-06T12:21:43;4.45;;;0.50;;
37407;SDS011;24866;50.248;8.252;2022-08-06T12:24:13;1.48;;;0.40;;
37407;SDS011;24866;50.248;8.252;2022-08-06T12:26:43;3.08;;;0.68;;
37407;SDS011;24866;50.248;8.252;2022-08-06T12:29:13;1.10;;;0.40;;
37407;SDS011;24866;50.248;8.252;2022-08-06T12:31:43;2.47;;;0.80;;
37407;SDS011;24866;50.248;8.252;2022-08-06T12:34:23;3.42;;;0.60;;
37407;SDS011;24866;50.248;8.252;2022-08-06T12:36:54;1.45;;;0.75;;
37407;SDS011;24866;50.248;8.252;2022-08-06T12:39:24;1.55;;;0.40;;
37407;SDS011;24866;50.248;8.252;2022-08-06T12:42:21;1.73;;;0.47;;
37407;SDS011;24866;50.248;8.252;2022-08-06T12:44:51;1.20;;;0.40;;
37407;SDS011;24866;50.248;8.252;2022-08-06T12:47:21;3.05;;;0.82;;
37407;SDS011;24866;50.248;8.252;2022-08-06T12:49:55;1.98;;;0.40;;
37407;SDS011;24866;50.248;8.252;2022-08-06T12:52:25;3.58;;;0.63;;
37407;SDS011;24866;50.248;8.252;2022-08-06T12:54:54;3.97;;;0.63;;
37407;SDS011;24866;50.248;8.252;2022-08-06T12:57:25;1.27;;;0.40;;
37407;SDS011;24866;50.248;8.252;2022-08-06T12:59:58;1.48;;;0.50;;
37407;SDS011;24866;50.248;8.252;2022-08-06T13:02:29;1.63;;;0.40;;
37407;SDS011;24866;50.248;8.252;2022-08-06T13:05:00;1.50;;;0.40;;
37407;SDS011;24866;50.248;8.252;2022-08-06T13:07:30;1.75;;;0.40;;
37407;SDS011;24866;50.248;8.252;2022-08-06T13:10:04;1.10;;;0.40;;
37407;SDS011;24866;50.248;8.252;2022-08-06T13:12:37;1.25;;;0.40;;
37407;SDS011;24866;50.248;8.252;2022-08-06T13:15:11;3.17;;;0.52;;
37407;SDS011;24866;50.248;8.252;2022-08-06T13:17:42;0.77;;;0.40;;
37407;SDS011;24866;50.248;8.252;2022-08-06T13:20:38;1.63;;;0.40;;
37407;SDS011;24866;50.248;8.252;2022-08-06T13:23:09;3.45;;;0.68;;
37407;SDS011;24866;50.248;8.252;2022-08-06T13:25:40;3.55;;;0.60;;
37407;SDS011;24866;50.248;8.252;2022-08-06T13:28:12;1.60;;;0.40;;
37407;SDS011;24866;50.248;8.252;2022-08-06T13:30:44;4.30;;;0.70;;
37407;SDS011;24866;50.248;8.252;2022-08-06T13:33:14;2.10;;;0.40;;
37407;SDS011;24866;50.248;8.252;2022-08-06T13:35:48;2.97;;;0.50;;
37407;SDS011;24866;50.248;8.252;2022-08-06T13:38:25;1.35;;;0.40;;
37407;SDS011;24866;50.248;8.252;2022-08-06T13:40:56;3.35;;;0.60;;
37407;SDS011;24866;50.248;8.252;2022-08-06T13:43:33;1.90;;;0.40;;
37407;SDS011;24866;50.248;8.252;2022-08-06T13:46:05;2.05;;;0.40;;
37407;SDS011;24866;50.248;8.252;2022-08-06T13:48:36;1.65;;;0.43;;
37407;SDS011;24866;50.248;8.252;2022-08-06T13:51:11;0.93;;;0.30;;
37407;SDS011;24866;50.248;8.252;2022-08-06T13:53:42;2.00;;;0.60;;
37407;SDS011;24866;50.248;8.252;2022-08-06T13:56:13;1.10;;;0.30;;
37407;SDS011;24866;50.248;8.252;2022-08-06T13:58:43;0.80;;;0.40;;
37407;SDS011;24866;50.248;8.252;2022-08-06T14:01:13;1.17;;;0.40;;
37407;SDS011;24866;50.248;8.252;2022-08-06T14:03:43;2.50;;;0.35;;
37407;SDS011;24866;50.248;8.252;2022-08-06T14:06:15;0.55;;;0.30;;
37407;SDS011;24866;50.248;8.252;2022-08-06T14:08:44;1.45;;;0.63;;
37407;SDS011;24866;50.248;8.252;2022-08-06T14:11:15;2.35;;;0.50;;
37407;SDS011;24866;50.248;8.252;2022-08-06T14:13:45;1.42;;;0.57;;
37407;SDS011;24866;50.248;8.252;2022-08-06T14:16:15;4.03;;;0.52;;
37407;SDS011;24866;50.248;8.252;2022-08-06T14:18:44;1.90;;;0.77;;
37407;SDS011;24866;50.248;8.252;2022-08-06T14:21:16;1.23;;;0.45;;
37407;SDS011;24866;50.248;8.252;2022-08-06T14:23:46;2.05;;;0.40;;
37407;SDS011;24866;50.248;8.252;2022-08-06T14:26:15;2.33;;;0.60;;
37407;SDS011;24866;50.248;8.252;2022-08-06T14:28:45;1.17;;;0.30;;
37407;SDS011;24866;50.248;8.252;2022-08-06T14:31:15;0.82;;;0.40;;
37407;SDS011;24866;50.248;8.252;2022-08-06T14:33:45;1.85;;;0.32;;
37407;SDS011;24866;50.248;8.252;2022-08-06T14:36:17;0.65;;;0.30;;
37407;SDS011;24866;50.248;8.252;2022-08-06T14:38:47;1.48;;;0.38;;
37407;SDS011;24866;50.248;8.252;2022-08-06T14:41:17;1.70;;;0.40;;
37407;SDS011;24866;50.248;8.252;2022-08-06T14:44:04;1.70;;;0.40;;
37407;SDS011;24866;50.248;8.252;2022-08-06T14:46:51;1.13;;;0.30;;
37407;SDS011;24866;50.248;8.252;2022-08-06T14:49:21;1.15;;;0.30;;
37407;SDS011;24866;50.248;8.252;2022-08-06T14:51:53;1.38;;;0.35;;
37407;SDS011;24866;50.248;8.252;2022-08-06T14:54:22;0.90;;;0.30;;
37407;SDS011;24866;50.248;8.252;2022-08-06T14:56:52;1.15;;;0.30;;
37407;SDS011;24866;50.248;8.252;2022-08-06T14:59:23;1.10;;;0.30;;
37407;SDS011;24866;50.248;8.252;2022-08-06T15:01:54;1.05;;;0.28;;
37407;SDS011;24866;50.248;8.252;2022-08-06T15:04:24;1.33;;;0.40;;
37407;SDS011;24866;50.248;8.252;2022-08-06T15:06:55;0.55;;;0.25;;
37407;SDS011;24866;50.248;8.252;2022-08-06T15:09:25;3.10;;;0.65;;
37407;SDS011;24866;50.248;8.252;2022-08-06T15:11:56;1.83;;;0.40;;
37407;SDS011;24866;50.248;8.252;2022-08-06T15:14:26;5.65;;;0.65;;
37407;SDS011;24866;50.248;8.252;2022-08-06T15:16:56;0.93;;;0.38;;
37407;SDS011;24866;50.248;8.252;2022-08-06T15:19:26;2.97;;;0.70;;
37407;SDS011;24866;50.248;8.252;2022-08-06T15:21:57;1.08;;;0.35;;
37407;SDS011;24866;50.248;8.252;2022-08-06T15:24:27;2.03;;;0.40;;
37407;SDS011;24866;50.248;8.252;2022-08-06T15:26:57;1.75;;;0.40;;
37407;SDS011;24866;50.248;8.252;2022-08-06T15:29:28;1.45;;;0.30;;
37407;SDS011;24866;50.248;8.252;2022-08-06T15:31:58;2.50;;;0.50;;
37407;SDS011;24866;50.248;8.252;2022-08-06T15:34:27;2.00;;;0.40;;
37407;SDS011;24866;50.248;8.252;2022-08-06T15:36:59;1.85;;;0.50;;
37407;SDS011;24866;50.248;8.252;2022-08-06T15:39:29;2.47;;;0.60;;
37407;SDS011;24866;50.248;8.252;2022-08-06T15:42:00;2.40;;;0.50;;
37407;SDS011;24866;50.248;8.252;2022-08-06T15:44:31;2.22;;;0.60;;
37407;SDS011;24866;50.248;8.252;2022-08-06T15:47:01;2.63;;;0.63;;
37407;SDS011;24866;50.248;8.252;2022-08-06T15:49:33;3.73;;;0.77;;